createdAt,value
2019-05-13T00:02:08.260Z,4.50
2019-05-13T00:04:34.377Z,4.50
2019-05-13T00:07:00.460Z,4.40
2019-05-13T00:09:27.162Z,4.30
2019-05-13T00:11:54.083Z,4.30
2019-05-13T00:14:20.349Z,4.30
2019-05-13T00:16:46.581Z,4.30
2019-05-13T00:19:14.243Z,3.00
2019-05-13T00:21:40.652Z,4.20
2019-05-13T00:24:06.875Z,4.20
2019-05-13T00:26:33.901Z,4.50
2019-05-13T00:29:00.174Z,4.20
2019-05-13T00:31:26.268Z,4.20
2019-05-13T00:33:53.250Z,4.20
2019-05-13T00:36:19.432Z,4.20
2019-05-13T00:38:45.541Z,4.20
2019-05-13T00:41:14.034Z,4.20
2019-05-13T00:46:06.099Z,4.30
2019-05-13T00:48:33.456Z,4.50
2019-05-13T00:50:59.843Z,4.30
2019-05-13T00:53:26.031Z,4.50
2019-05-13T00:55:53.671Z,4.40
2019-05-13T00:58:19.975Z,4.30
2019-05-13T01:00:46.045Z,4.40
2019-05-13T01:03:14.080Z,4.30
2019-05-13T01:05:40.500Z,4.30
2019-05-13T01:08:06.773Z,4.30
2019-05-13T01:10:34.445Z,4.30
2019-05-13T01:13:00.959Z,4.20
2019-05-13T01:15:27.020Z,4.10
2019-05-13T01:17:53.561Z,4.10
2019-05-13T01:20:19.771Z,4.10
2019-05-13T01:22:45.824Z,4.10
2019-05-13T01:25:14.192Z,4.00
2019-05-13T01:27:39.916Z,4.00
2019-05-13T01:30:06.983Z,3.90
2019-05-13T01:35:00.476Z,3.90
2019-05-13T01:37:39.174Z,3.80
2019-05-13T01:39:54.645Z,3.80
2019-05-13T01:42:20.756Z,3.80
2019-05-13T01:44:46.903Z,3.80
2019-05-13T05:17:24.545Z,6.70
2019-05-13T05:20:06.239Z,6.70
2019-05-13T05:22:42.548Z,7.00
2019-05-13T05:25:22.099Z,7.70
2019-05-13T05:27:58.556Z,7.90
2019-05-13T05:33:21.497Z,9.10
2019-05-13T05:35:52.102Z,9.50
2019-05-13T05:38:25.899Z,10.00
2019-05-13T05:40:52.288Z,10.40
2019-05-13T05:43:18.744Z,10.90
2019-05-13T05:45:44.996Z,11.10
2019-05-13T05:48:14.871Z,11.20
2019-05-13T05:50:42.404Z,11.20
2019-05-13T05:53:11.199Z,11.30
2019-05-13T05:55:41.195Z,11.50
2019-05-13T05:58:08.404Z,11.50
2019-05-13T06:00:36.560Z,11.50
2019-05-13T06:03:03.032Z,11.50
2019-05-13T06:05:31.787Z,11.70
2019-05-13T06:07:57.631Z,11.90
2019-05-13T06:10:23.725Z,11.90
2019-05-13T06:12:52.177Z,11.80
2019-05-13T06:15:18.041Z,11.40
2019-05-13T06:17:44.512Z,11.00
2019-05-13T06:20:13.231Z,10.80
2019-05-13T06:22:38.788Z,10.70
2019-05-13T06:25:05.588Z,10.60
2019-05-13T06:27:31.871Z,10.50
2019-05-13T06:29:58.023Z,10.30
2019-05-13T06:32:26.421Z,10.20
2019-05-13T06:34:52.568Z,10.00
2019-05-13T06:37:21.687Z,9.90
2019-05-13T06:39:48.090Z,9.80
2019-05-13T06:42:14.152Z,9.80
2019-05-13T06:44:42.109Z,9.90
2019-05-13T06:47:08.167Z,9.90
2019-05-13T06:49:34.323Z,9.90
2019-05-13T06:52:01.722Z,9.90
2019-05-13T06:54:28.236Z,9.90
2019-05-13T06:56:54.400Z,10.00
2019-05-13T06:59:22.356Z,10.00
2019-05-13T07:01:48.569Z,10.10
2019-05-13T07:04:14.778Z,10.10
2019-05-13T07:06:41.881Z,10.20
2019-05-13T07:09:08.187Z,10.30
2019-05-13T07:11:34.448Z,10.30
2019-05-13T07:14:02.413Z,10.40
2019-05-13T07:16:28.536Z,10.40
2019-05-13T07:18:54.644Z,10.50
2019-05-13T07:21:21.700Z,10.50
2019-05-13T07:23:52.157Z,10.60
2019-05-13T07:26:16.217Z,10.70
2019-05-13T07:28:42.984Z,10.70
2019-05-13T07:31:11.403Z,10.90
2019-05-13T07:33:37.236Z,11.00
2019-05-13T07:36:03.738Z,11.10
2019-05-13T07:38:32.348Z,11.20
2019-05-13T07:41:02.537Z,11.20
2019-05-13T07:43:28.787Z,11.20
2019-05-13T07:45:54.884Z,11.30
2019-05-13T07:48:27.266Z,11.30
2019-05-13T07:50:56.675Z,11.30
2019-05-13T07:53:19.151Z,11.30
2019-05-13T07:55:45.056Z,11.30
2019-05-13T07:58:11.697Z,11.30
2019-05-13T08:00:37.859Z,11.30
2019-05-13T08:03:03.980Z,11.40
2019-05-13T08:05:31.440Z,11.40
2019-05-13T08:07:57.678Z,11.50
2019-05-13T08:10:23.739Z,11.50
2019-05-13T08:12:51.656Z,11.60
2019-05-13T08:15:17.975Z,11.70
2019-05-13T08:17:47.345Z,11.80
2019-05-13T08:20:13.296Z,11.80
2019-05-13T08:22:39.372Z,11.90
2019-05-13T08:25:05.726Z,12.00
2019-05-13T08:27:35.072Z,11.90
2019-05-13T08:30:01.738Z,12.00
2019-05-13T08:32:27.815Z,12.10
2019-05-13T08:35:02.035Z,12.20
2019-05-13T08:37:21.952Z,12.30
2019-05-13T08:39:48.000Z,12.30
2019-05-13T08:42:19.016Z,12.40
2019-05-13T08:44:42.566Z,12.40
2019-05-13T08:47:08.684Z,12.50
2019-05-13T08:49:34.744Z,12.60
2019-05-13T08:52:01.617Z,12.70
2019-05-13T08:54:28.075Z,12.80
2019-05-13T08:56:54.151Z,12.90
2019-05-13T08:59:22.239Z,13.00
2019-05-13T09:01:48.154Z,13.00
2019-05-13T09:04:14.212Z,13.10
2019-05-13T09:06:41.886Z,13.10
2019-05-13T09:09:08.319Z,13.20
2019-05-13T09:11:34.571Z,13.40
2019-05-13T09:14:02.342Z,13.40
2019-05-13T09:16:28.687Z,13.40
2019-05-13T09:18:54.733Z,13.40
2019-05-13T09:21:22.506Z,13.30
2019-05-13T09:23:48.751Z,13.30
2019-05-13T09:26:14.826Z,13.40
2019-05-13T09:28:41.722Z,13.40
2019-05-13T09:31:08.083Z,13.50
2019-05-13T09:33:34.209Z,13.60
2019-05-13T09:36:02.083Z,13.70
2019-05-13T09:38:28.344Z,13.70
2019-05-13T09:40:54.396Z,13.60
2019-05-13T09:43:22.159Z,13.70
2019-05-13T09:45:48.424Z,13.70
2019-05-13T09:48:14.476Z,13.80
2019-05-13T09:50:42.497Z,13.80
2019-05-13T09:53:08.496Z,13.90
2019-05-13T09:55:34.648Z,13.90
2019-05-13T09:58:02.452Z,14.00
2019-05-13T10:00:28.683Z,14.10
2019-05-13T10:02:54.768Z,14.10
2019-05-13T10:05:22.357Z,14.10
2019-05-13T10:07:48.676Z,14.20
2019-05-13T10:10:15.420Z,14.30
2019-05-13T10:12:42.653Z,14.30
2019-05-13T10:15:09.284Z,14.40
2019-05-13T10:17:35.343Z,14.40
2019-05-13T10:20:03.707Z,14.40
2019-05-13T10:22:32.011Z,14.40
2019-05-13T10:24:57.823Z,14.40
2019-05-13T10:27:24.185Z,14.50
2019-05-13T10:29:51.798Z,14.50
2019-05-13T10:32:18.728Z,14.50
2019-05-13T10:34:45.392Z,14.60
2019-05-13T10:37:11.853Z,14.60
2019-05-13T10:39:38.007Z,14.50
2019-05-13T10:42:04.166Z,14.60
2019-05-13T10:44:30.391Z,14.70
2019-05-13T10:46:56.539Z,14.90
2019-05-13T10:49:22.592Z,14.90
2019-05-13T10:51:48.866Z,15.00
2019-05-13T10:54:15.057Z,15.00
2019-05-13T10:56:42.994Z,15.00
2019-05-13T10:59:09.064Z,15.00
2019-05-13T11:01:35.118Z,14.90
2019-05-13T11:04:02.578Z,14.90
2019-05-13T11:06:29.027Z,15.00
2019-05-13T11:08:55.307Z,15.00
2019-05-13T11:11:22.039Z,14.90
2019-05-13T11:13:58.062Z,14.90
2019-05-13T11:16:16.264Z,14.90
2019-05-13T11:18:42.339Z,14.90
2019-05-13T11:21:08.491Z,15.10
2019-05-13T11:23:34.553Z,15.30
2019-05-13T11:26:03.231Z,15.30
2019-05-13T11:28:28.731Z,15.20
2019-05-13T11:30:59.577Z,15.20
2019-05-13T11:33:23.056Z,15.20
2019-05-13T11:35:49.244Z,15.30
2019-05-13T11:38:15.296Z,15.30
2019-05-13T11:40:41.357Z,15.40
2019-05-13T11:43:07.628Z,15.70
2019-05-13T11:45:33.694Z,15.70
2019-05-13T11:48:02.319Z,15.60
2019-05-13T11:50:27.829Z,15.60
2019-05-13T11:52:54.106Z,15.70
2019-05-13T11:55:23.030Z,15.80
2019-05-13T11:57:48.316Z,15.90
2019-05-13T12:00:18.193Z,15.90
2019-05-13T12:02:50.679Z,15.90
2019-05-13T12:05:13.039Z,15.90
2019-05-13T12:07:40.223Z,15.70
2019-05-13T12:10:08.000Z,15.70
2019-05-13T12:12:34.691Z,15.70
2019-05-13T12:15:26.531Z,16.30
2019-05-13T12:17:34.037Z,16.00
2019-05-13T12:19:58.863Z,16.10
2019-05-13T12:22:24.924Z,16.20
2019-05-13T12:24:51.582Z,16.20
2019-05-13T12:27:18.360Z,16.10
2019-05-13T12:29:44.420Z,16.10
2019-05-13T12:32:13.511Z,16.10
2019-05-13T12:34:41.883Z,16.10
2019-05-13T12:37:06.431Z,16.00
2019-05-13T12:39:32.540Z,15.90
2019-05-13T12:41:58.688Z,15.60
2019-05-13T12:44:24.751Z,15.60
2019-05-13T12:46:54.097Z,15.50
2019-05-13T12:49:21.471Z,15.50
2019-05-13T12:51:47.190Z,15.50
2019-05-13T12:54:13.927Z,15.60
2019-05-13T12:56:42.629Z,15.60
2019-05-13T12:59:08.447Z,15.50
2019-05-13T13:01:34.596Z,15.50
2019-05-13T13:04:02.276Z,15.60
2019-05-13T13:06:36.082Z,15.50
2019-05-13T13:08:56.512Z,15.50
2019-05-13T13:11:23.081Z,15.50
2019-05-13T13:14:09.472Z,15.40
2019-05-13T13:16:17.447Z,15.50
2019-05-13T13:18:43.790Z,15.40
2019-05-13T13:21:10.155Z,15.50
2019-05-13T13:23:37.947Z,15.50
2019-05-13T13:26:04.110Z,15.40
2019-05-13T13:28:33.776Z,15.50
2019-05-13T13:30:58.230Z,15.50
2019-05-13T13:33:24.384Z,15.60
2019-05-13T13:35:59.569Z,15.50
2019-05-13T13:38:18.527Z,15.50
2019-05-13T13:40:46.170Z,15.50
2019-05-13T13:43:13.080Z,15.60
2019-05-13T13:46:05.830Z,15.70
2019-05-13T13:48:07.303Z,15.60
2019-05-13T13:50:33.749Z,15.60
2019-05-13T13:53:00.324Z,15.70
2019-05-13T13:55:26.512Z,15.70
2019-05-13T13:57:56.702Z,15.60
2019-05-13T14:00:34.668Z,15.50
2019-05-13T14:02:53.734Z,15.50
2019-05-13T14:05:17.671Z,15.60
2019-05-13T14:07:43.732Z,15.60
2019-05-13T14:10:11.656Z,15.80
2019-05-13T14:12:38.283Z,15.80
2019-05-13T14:15:04.651Z,15.90
2019-05-13T14:17:31.283Z,15.90
2019-05-13T14:19:57.420Z,16.00
2019-05-13T14:22:23.494Z,15.90
2019-05-13T14:24:51.816Z,15.70
2019-05-13T14:27:17.837Z,15.70
2019-05-13T14:29:49.123Z,15.60
2019-05-13T14:32:11.868Z,15.60
2019-05-13T14:34:37.916Z,15.50
2019-05-13T14:37:04.014Z,15.50
2019-05-13T14:39:31.888Z,15.50
2019-05-13T14:41:58.196Z,15.60
2019-05-13T14:44:24.252Z,15.60
2019-05-13T14:46:52.411Z,15.50
2019-05-13T14:49:18.272Z,15.50
2019-05-13T14:51:44.338Z,15.50
2019-05-13T14:54:10.496Z,15.40
2019-05-13T14:56:36.551Z,15.30
2019-05-13T14:59:02.825Z,15.40
2019-05-13T15:01:29.167Z,15.40
2019-05-13T15:03:55.223Z,15.40
2019-05-13T15:06:22.184Z,15.40
2019-05-13T15:08:48.583Z,15.40
2019-05-13T15:11:14.697Z,15.50
2019-05-13T15:13:42.549Z,15.50
2019-05-13T15:16:08.988Z,15.60
2019-05-13T15:18:35.376Z,15.50
2019-05-13T15:21:01.846Z,15.40
2019-05-13T15:23:28.189Z,15.50
2019-05-13T15:25:54.247Z,15.50
2019-05-13T15:28:22.182Z,15.50
2019-05-13T15:30:48.257Z,15.60
2019-05-13T15:33:14.317Z,15.50
2019-05-13T15:35:41.964Z,15.30
2019-05-13T15:38:08.445Z,15.20
2019-05-13T15:40:34.495Z,15.10
2019-05-13T15:43:02.429Z,15.00
2019-05-13T15:45:28.531Z,15.00
2019-05-13T15:47:54.622Z,15.00
2019-05-13T15:50:21.433Z,15.00
2019-05-13T15:52:47.885Z,14.90
2019-05-13T15:55:14.039Z,14.80
2019-05-13T15:57:42.601Z,14.60
2019-05-13T16:00:08.775Z,14.60
2019-05-13T16:02:34.828Z,14.60
2019-05-13T16:05:03.956Z,14.40
2019-05-13T16:07:28.880Z,14.30
2019-05-13T16:09:54.940Z,14.30
2019-05-13T16:12:21.400Z,14.30
2019-05-13T16:14:47.884Z,14.20
2019-05-13T16:17:13.939Z,14.10
2019-05-13T16:19:42.026Z,14.10
2019-05-13T16:22:08.079Z,14.10
2019-05-13T16:24:34.244Z,14.10
2019-05-13T16:27:02.545Z,14.10
2019-05-13T16:29:28.256Z,14.00
2019-05-13T16:31:54.315Z,13.90
2019-05-13T16:34:22.276Z,13.80
2019-05-13T16:36:48.719Z,13.70
2019-05-13T16:39:14.873Z,13.60
2019-05-13T16:41:42.629Z,13.60
2019-05-13T16:44:11.650Z,13.50
2019-05-13T16:46:37.051Z,13.40
2019-05-13T16:49:03.207Z,13.40
2019-05-13T16:51:31.596Z,13.40
2019-05-13T16:53:57.232Z,13.30
2019-05-13T16:56:27.742Z,13.30
2019-05-13T16:58:52.191Z,13.20
2019-05-13T17:01:18.428Z,13.20
2019-05-13T17:03:44.580Z,13.20
2019-05-13T17:06:12.712Z,13.10
2019-05-13T17:08:38.648Z,13.10
2019-05-13T17:11:04.744Z,13.00
2019-05-13T17:13:31.545Z,13.00
2019-05-13T17:15:57.914Z,13.00
2019-05-13T17:18:24.060Z,13.00
2019-05-13T17:20:52.049Z,12.90
2019-05-13T17:23:18.120Z,12.90
2019-05-13T17:25:44.203Z,12.80
2019-05-13T17:28:13.303Z,12.70
2019-05-13T17:30:38.211Z,12.70
2019-05-13T17:33:04.280Z,12.70
2019-05-13T17:35:31.271Z,12.60
2019-05-13T17:37:57.595Z,12.60
2019-05-13T17:40:23.655Z,12.60
2019-05-13T17:42:49.829Z,12.60
2019-05-13T17:45:16.075Z,12.60
2019-05-13T17:47:45.804Z,12.70
2019-05-13T17:50:12.376Z,12.80
2019-05-13T17:52:38.531Z,12.80
2019-05-13T17:55:05.318Z,12.90
2019-05-13T17:57:32.050Z,13.00
2019-05-13T17:59:58.352Z,13.20
2019-05-13T18:02:24.400Z,13.30
2019-05-13T18:04:52.087Z,13.40
2019-05-13T18:07:18.475Z,13.50
2019-05-13T18:09:44.527Z,13.60
2019-05-13T18:12:11.573Z,13.60
2019-05-13T18:14:37.876Z,13.50
2019-05-13T18:17:03.987Z,13.30
2019-05-13T18:19:31.691Z,13.10
2019-05-13T18:21:58.004Z,12.80
2019-05-13T18:24:24.067Z,12.60
2019-05-13T18:26:52.033Z,12.40
2019-05-13T18:29:18.092Z,12.30
2019-05-13T18:31:44.143Z,12.10
2019-05-13T18:34:12.309Z,12.00
2019-05-13T18:36:38.163Z,11.80
2019-05-13T18:39:06.619Z,11.60
2019-05-13T18:41:32.691Z,11.50
2019-05-13T18:44:00.886Z,11.40
2019-05-13T18:46:26.703Z,11.30
2019-05-13T18:48:58.997Z,11.10
2019-05-13T18:51:21.219Z,11.00
2019-05-13T18:53:47.428Z,10.90
2019-05-13T18:56:13.485Z,10.80
2019-05-13T18:58:39.571Z,10.70
2019-05-13T19:01:05.683Z,10.60
2019-05-13T19:03:32.239Z,10.50
2019-05-13T19:05:58.699Z,10.40
2019-05-13T19:08:24.760Z,10.30
2019-05-13T19:10:52.204Z,10.20
2019-05-13T19:13:18.480Z,10.20
2019-05-13T19:15:44.560Z,10.00
2019-05-13T19:18:12.259Z,10.00
2019-05-13T19:20:38.576Z,10.00
2019-05-13T19:23:04.664Z,9.90
2019-05-13T19:25:31.398Z,9.90
2019-05-13T19:27:57.684Z,9.80
2019-05-13T19:30:23.735Z,9.70
2019-05-13T19:32:51.905Z,9.60
2019-05-13T19:35:17.811Z,9.50
2019-05-13T19:37:44.391Z,9.50
2019-05-13T19:40:12.992Z,9.50
2019-05-13T19:42:38.916Z,9.40
2019-05-13T19:45:05.163Z,9.40
2019-05-13T19:47:31.434Z,9.40
2019-05-13T19:49:57.567Z,9.30
2019-05-13T19:52:23.636Z,9.20
2019-05-13T19:54:51.410Z,9.20
2019-05-13T19:57:17.663Z,9.10
2019-05-13T19:59:43.711Z,9.10
2019-05-13T20:02:12.053Z,9.00
2019-05-13T20:04:37.758Z,9.00
2019-05-13T20:07:03.859Z,8.90
2019-05-13T20:09:32.002Z,8.80
2019-05-13T20:11:58.001Z,8.80
2019-05-13T20:14:24.141Z,8.70
2019-05-13T20:16:52.315Z,8.70
2019-05-13T20:19:18.239Z,8.60
2019-05-13T20:21:44.450Z,8.50
2019-05-13T20:24:11.853Z,8.50
2019-05-13T20:26:38.197Z,8.40
2019-05-13T20:29:04.339Z,8.40
2019-05-13T20:31:32.210Z,8.30
2019-05-13T20:33:58.479Z,8.30
2019-05-13T20:36:24.709Z,8.20
2019-05-13T20:38:51.620Z,8.20
2019-05-13T20:41:17.904Z,8.20
2019-05-13T20:43:43.943Z,8.10
2019-05-13T20:46:11.322Z,8.00
2019-05-13T20:48:37.570Z,8.00
2019-05-13T20:51:03.655Z,8.00
2019-05-13T20:53:31.075Z,7.90
2019-05-13T20:55:57.383Z,7.90
2019-05-13T20:58:23.453Z,7.90
2019-05-13T21:00:51.477Z,7.90
2019-05-13T21:03:17.527Z,7.80
2019-05-13T21:05:43.583Z,7.70
2019-05-13T21:08:09.636Z,7.70
2019-05-13T21:10:35.691Z,7.70
2019-05-13T21:13:01.897Z,7.70
2019-05-13T21:15:28.023Z,7.60
2019-05-13T21:17:54.142Z,7.60
2019-05-13T21:20:25.570Z,7.50
2019-05-13T21:22:48.160Z,7.50
2019-05-13T21:25:14.342Z,7.40
2019-05-13T21:27:42.098Z,7.40
2019-05-13T21:30:08.844Z,7.30
2019-05-13T21:32:34.991Z,7.30
2019-05-13T21:35:02.035Z,7.20
2019-05-13T21:37:28.179Z,7.20
2019-05-13T21:39:54.248Z,7.20
2019-05-13T21:42:21.627Z,7.20
2019-05-13T21:44:48.140Z,7.10
2019-05-13T21:47:14.303Z,7.10
2019-05-13T21:49:42.358Z,7.00
2019-05-13T21:52:08.353Z,7.00
2019-05-13T21:54:34.419Z,6.90
2019-05-13T21:57:02.249Z,6.90
2019-05-13T21:59:28.436Z,6.90
2019-05-13T22:01:54.484Z,6.80
2019-05-13T22:04:21.506Z,6.80
2019-05-13T22:06:47.816Z,6.70
2019-05-13T22:09:14.168Z,6.70
2019-05-13T22:11:42.056Z,6.70
2019-05-13T22:14:08.191Z,6.60
2019-05-13T22:16:34.267Z,6.60
2019-05-13T22:19:01.531Z,6.60
2019-05-13T22:21:27.799Z,6.60
2019-05-13T22:23:53.868Z,6.60
2019-05-13T22:26:22.071Z,6.60
2019-05-13T22:28:47.950Z,6.50
2019-05-13T22:31:14.047Z,6.50
2019-05-13T22:33:41.271Z,6.40
2019-05-13T22:45:54.227Z,6.30
2019-05-13T22:48:22.303Z,6.20
2019-05-13T22:50:48.240Z,6.20
2019-05-13T22:53:14.320Z,6.20
2019-05-13T22:55:41.812Z,6.20
2019-05-13T22:58:08.117Z,6.10
2019-05-13T23:00:34.168Z,6.10
2019-05-13T23:03:01.616Z,6.10
2019-05-13T23:05:28.083Z,6.10
2019-05-13T23:07:54.157Z,6.00
2019-05-13T23:10:22.487Z,6.00
2019-05-13T23:12:48.253Z,5.90
2019-05-13T23:15:14.503Z,5.90
2019-05-13T23:17:41.515Z,5.80
2019-05-13T23:20:07.999Z,5.80
2019-05-13T23:22:34.039Z,5.80
2019-05-13T23:25:01.579Z,5.70
2019-05-13T23:27:27.852Z,5.70
2019-05-13T23:41:18.048Z,5.50
2019-05-13T23:43:44.148Z,5.40
2019-05-13T23:46:11.746Z,5.40
2019-05-13T23:48:38.039Z,5.40
2019-05-13T23:51:04.097Z,5.30
2019-05-13T23:53:31.559Z,5.30
2019-05-13T23:55:57.959Z,5.20
2019-05-13T23:58:24.016Z,5.20
